Terminal Aerodrome Forecast
Issued by NWS

Home | Current Version | Previous Version | Text Only | Print | Product List | Glossary On
Versions: 1 2 3 4 5 6 7 8 9 10 11 12 13 14 15 16 17 18 19 20 21 22 23 24 25 26 27 28 29 30 31 32 33 34 35
000
FTUS43 KGLD 221154
TAFMCK
TAF
KMCK 221154Z 2212/2312 VRB05KT 5SM BR SCT010 BKN200
     FM221500 07008KT P6SM SCT120
     FM222100 13011KT P6SM VCTS SCT030CB BKN080
     FM230000 15010KT P6SM TSRA OVC030CB
     FM230300 16010KT P6SM VCTS SCT030CB OVC100
     FM230600 23009KT 5SM BR SCT008 SCT150=

USA.gov is the U.S. government's official web portal to all federal, state and local government web resources and services.